Time;durP1;ratioP1;P1;durP2;ratioP2;P2;SDS_P1;SDS_P2;PMS_P1;PMS_P2;Temp;Humidity;BMP_temperature;BMP_pressure;BME280_temperature;BME280_humidity;BME280_pressure;Samples;Min_cycle;Max_cycle;Signal;HPM_P1;HPM_P2
2022/05/10 00:29:56;;;;;;;0.10;0.10;;;;;;;;;;5978124;22;20036;-95
2022/05/10 00:35:26;;;;;;;0.10;0.10;;;;;;;;;;5043718;28;20045;-96
2022/05/10 00:37:53;;;;;;;0.10;0.10;;;;;;;;;;5026873;28;20041;-96
2022/05/10 00:40:20;;;;;;;0.10;0.10;;;;;;;;;;5003692;28;20079;-95
2022/05/10 00:43:16;;;;;;;0.10;0.10;;;;;;;;;;5003292;28;20134;-95
2022/05/10 00:45:48;;;;;;;0.10;0.10;;;;;;;;;;4999904;28;20045;-96
2022/05/10 00:48:17;;;;;;;0.10;0.10;;;;;;;;;;5004415;28;20160;-94
2022/05/10 00:50:47;;;;;;;0.10;0.10;;;;;;;;;;5020100;28;20396;-93
2022/05/10 00:53:19;;;;;;;0.10;0.10;;;;;;;;;;5002922;28;20044;-93
2022/05/10 00:55:51;;;;;;;0.10;0.10;;;;;;;;;;5026287;28;20059;-96
2022/05/10 00:59:02;;;;;;;0.10;0.10;;;;;;;;;;4990389;28;20050;-96
2022/05/10 01:01:39;;;;;;;0.10;0.10;;;;;;;;;;4942425;29;20047;-96
2022/05/10 01:04:11;;;;;;;0.10;0.10;;;;;;;;;;4961809;28;20077;-96
2022/05/10 01:06:42;;;;;;;0.10;0.10;;;;;;;;;;4944761;28;20072;-94
2022/05/10 01:09:21;;;;;;;0.20;0.20;;;;;;;;;;4944784;28;20049;-95
2022/05/10 01:11:51;;;;;;;0.10;0.10;;;;;;;;;;4944700;28;20046;-94
2022/05/10 01:14:32;;;;;;;0.10;0.10;;;;;;;;;;4961079;28;20054;-95
2022/05/10 01:16:58;;;;;;;0.10;0.10;;;;;;;;;;4944485;28;20106;-92
2022/05/10 01:19:24;;;;;;;0.10;0.10;;;;;;;;;;4961054;28;20054;-96
2022/05/10 01:21:54;;;;;;;0.10;0.10;;;;;;;;;;4944708;28;20061;-94
2022/05/10 01:24:33;;;;;;;0.10;0.10;;;;;;;;;;4960342;28;20109;-96
2022/05/10 01:27:07;;;;;;;0.10;0.10;;;;;;;;;;4946160;28;20116;-95
2022/05/10 01:39:23;;;;;;;;;;;;;;;;;;;;;
2022/05/10 01:48:23;;;;;;;0.10;0.10;;;;;;;;;;4890355;29;20567;-96
2022/05/10 01:50:56;;;;;;;0.10;0.10;;;;;;;;;;4887637;29;20527;-96
2022/05/10 01:53:32;;;;;;;0.10;0.10;;;;;;;;;;4887314;29;20051;-94
2022/05/10 02:04:45;;;;;;;0.10;0.10;;;;;;;;;;4918237;29;20047;-96
2022/05/10 02:07:30;;;;;;;0.10;0.10;;;;;;;;;;4907850;29;20048;-95
2022/05/10 02:16:10;;;;;;;0.10;0.10;;;;;;;;;;5967010;23;20032;-96
2022/05/10 02:19:43;;;;;;;;;;;;;;;;;;;;;
2022/05/10 02:25:24;;;;;;;0.10;0.10;;;;;;;;;;5785375;23;20065;-96
2022/05/10 02:36:37;;;;;;;0.10;0.10;;;;;;;;;;5863812;23;20125;-95
2022/05/10 02:39:04;;;;;;;0.10;0.10;;;;;;;;;;4944880;28;20075;-96
2022/05/10 02:42:11;;;;;;;0.10;0.10;;;;;;;;;;4933522;28;20049;-96
2022/05/10 02:56:24;;;;;;;;;;;;;;;;;;;;;
2022/05/10 02:59:15;;;;;;;;;;;;;;;;;;;;;
2022/05/10 04:03:44;;;;;;;0.10;0.10;;;;;;;;;;1184798;23;20308;-93
2022/05/10 04:06:10;;;;;;;0.10;0.10;;;;;;;;;;4907375;29;20055;-96
2022/05/10 04:08:37;;;;;;;0.20;0.17;;;;;;;;;;4910983;29;20071;-96
2022/05/10 04:11:03;;;;;;;0.32;0.28;;;;;;;;;;4910853;29;20074;-95
2022/05/10 04:13:30;;;;;;;0.10;0.10;;;;;;;;;;4907667;29;20036;-96
2022/05/10 04:16:10;;;;;;;0.10;0.10;;;;;;;;;;4924829;29;20031;-96
2022/05/10 04:18:39;;;;;;;0.10;0.10;;;;;;;;;;4923758;29;20381;-96
2022/05/10 04:21:05;;;;;;;0.10;0.10;;;;;;;;;;4923343;29;20050;-95
2022/05/10 04:23:34;;;;;;;0.10;0.10;;;;;;;;;;4924162;29;20043;-96
2022/05/10 04:26:13;;;;;;;0.10;0.10;;;;;;;;;;4924194;29;20039;-95
2022/05/10 04:28:41;;;;;;;0.10;0.10;;;;;;;;;;4924826;29;20056;-96
2022/05/10 04:31:09;;;;;;;0.10;0.10;;;;;;;;;;4907966;29;20070;-95
2022/05/10 04:33:37;;;;;;;0.10;0.10;;;;;;;;;;4922754;29;20135;-94
2022/05/10 04:36:04;;;;;;;0.10;0.10;;;;;;;;;;4923245;29;20040;-96
2022/05/10 04:38:31;;;;;;;0.20;0.20;;;;;;;;;;4920851;29;20058;-96
2022/05/10 04:43:46;;;;;;;0.10;0.10;;;;;;;;;;4922637;29;20043;-96
2022/05/10 04:46:21;;;;;;;0.10;0.10;;;;;;;;;;4926224;29;20118;-96
2022/05/10 04:52:23;;;;;;;0.10;0.10;;;;;;;;;;5187617;23;20053;-96
2022/05/10 04:54:49;;;;;;;0.10;0.10;;;;;;;;;;4943537;28;20121;-96
2022/05/10 04:57:15;;;;;;;0.15;0.15;;;;;;;;;;4927686;28;20035;-96
2022/05/10 04:59:42;;;;;;;0.10;0.10;;;;;;;;;;4928703;28;20129;-96
2022/05/10 05:02:08;;;;;;;0.10;0.10;;;;;;;;;;4924657;29;20047;-95
2022/05/10 05:04:38;;;;;;;0.10;0.10;;;;;;;;;;4926662;29;20047;-96
2022/05/10 05:10:57;;;;;;;;;;;;;;;;;;;;;
2022/05/10 05:13:48;;;;;;;0.10;0.10;;;;;;;;;;4904983;29;20056;-96
2022/05/10 05:16:17;;;;;;;0.10;0.10;;;;;;;;;;4869712;29;20052;-94
2022/05/10 05:39:59;;;;;;;0.10;0.10;;;;;;;;;;4932879;29;20055;-96
2022/05/10 05:43:02;;;;;;;0.10;0.10;;;;;;;;;;4940519;29;20044;-96
2022/05/10 05:49:19;;;;;;;0.10;0.10;;;;;;;;;;5055740;23;20066;-96
2022/05/10 05:51:45;;;;;;;0.10;0.10;;;;;;;;;;4920750;29;20058;-95
2022/05/10 05:54:13;;;;;;;0.10;0.10;;;;;;;;;;4909403;29;20054;-96
2022/05/10 05:59:59;;;;;;;0.20;0.20;;;;;;;;;;4923893;29;20051;-95
2022/05/10 06:02:26;;;;;;;0.20;0.10;;;;;;;;;;4908175;29;20066;-94
2022/05/10 06:04:52;;;;;;;0.03;0.03;;;;;;;;;;4910745;29;20479;-91
2022/05/10 06:07:18;;;;;;;0.10;0.10;;;;;;;;;;4910969;29;20103;-94
2022/05/10 06:09:54;;;;;;;0.10;0.10;;;;;;;;;;4928548;29;20458;-96
2022/05/10 06:12:20;;;;;;;0.10;0.10;;;;;;;;;;4914730;29;20106;-96
2022/05/10 06:14:55;;;;;;;0.10;0.10;;;;;;;;;;4917249;29;20039;-96
2022/05/10 06:17:26;;;;;;;0.10;0.10;;;;;;;;;;4915590;29;20075;-95
2022/05/10 06:19:52;;;;;;;0.10;0.10;;;;;;;;;;4912210;29;20447;-94
2022/05/10 06:22:18;;;;;;;0.10;0.10;;;;;;;;;;4911933;29;20491;-96
2022/05/10 06:24:45;;;;;;;0.10;0.10;;;;;;;;;;4912088;29;20134;-94
2022/05/10 06:27:12;;;;;;;0.10;0.10;;;;;;;;;;4910744;29;20407;-96
2022/05/10 06:29:38;;;;;;;0.30;0.30;;;;;;;;;;4910812;29;20047;-95
2022/05/10 06:32:04;;;;;;;0.10;0.10;;;;;;;;;;4910103;29;20047;-94
2022/05/10 06:34:30;;;;;;;0.10;0.10;;;;;;;;;;4910191;29;20051;-95
2022/05/10 06:36:56;;;;;;;0.10;0.10;;;;;;;;;;4910225;29;20538;-94
2022/05/10 06:39:22;;;;;;;0.10;0.10;;;;;;;;;;4910263;29;20095;-94
2022/05/10 06:41:48;;;;;;;0.10;0.10;;;;;;;;;;4910143;29;20075;-94
2022/05/10 06:44:14;;;;;;;0.10;0.10;;;;;;;;;;4910681;29;20075;-94
2022/05/10 06:46:40;;;;;;;0.10;0.10;;;;;;;;;;4910194;29;20051;-92
2022/05/10 06:49:08;;;;;;;0.20;0.20;;;;;;;;;;4910028;29;20066;-95
2022/05/10 06:51:34;;;;;;;0.10;0.10;;;;;;;;;;4909918;29;20057;-95
2022/05/10 06:54:00;;;;;;;0.10;0.10;;;;;;;;;;4910278;29;20043;-94
2022/05/10 06:56:28;;;;;;;0.10;0.10;;;;;;;;;;4908709;29;20047;-93
2022/05/10 06:58:55;;;;;;;0.10;0.10;;;;;;;;;;4909968;29;20043;-94
2022/05/10 07:01:22;;;;;;;0.10;0.10;;;;;;;;;;4909652;29;20467;-93
2022/05/10 07:03:49;;;;;;;0.10;0.10;;;;;;;;;;4909816;29;20083;-92
2022/05/10 07:06:18;;;;;;;0.10;0.10;;;;;;;;;;4925008;29;20070;-92
2022/05/10 07:08:44;;;;;;;0.20;0.20;;;;;;;;;;4909759;29;20046;-92
2022/05/10 07:11:10;;;;;;;0.10;0.10;;;;;;;;;;4925275;29;20411;-92
2022/05/10 07:13:36;;;;;;;0.20;0.20;;;;;;;;;;4924427;29;20043;-95
2022/05/10 07:16:03;;;;;;;0.10;0.10;;;;;;;;;;4908995;29;20050;-92
2022/05/10 07:18:29;;;;;;;0.10;0.10;;;;;;;;;;4924664;29;20489;-92
2022/05/10 07:20:55;;;;;;;0.10;0.10;;;;;;;;;;4908715;29;20043;-92
2022/05/10 07:23:30;;;;;;;0.10;0.10;;;;;;;;;;4908578;29;20471;-91
2022/05/10 07:25:57;;;;;;;0.20;0.20;;;;;;;;;;4908574;29;20039;-91
2022/05/10 07:28:23;;;;;;;0.20;0.20;;;;;;;;;;4924269;29;20047;-92
2022/05/10 07:30:49;;;;;;;0.10;0.10;;;;;;;;;;4925501;29;20041;-92
2022/05/10 07:33:19;;;;;;;0.20;0.20;;;;;;;;;;4913594;29;20491;-91
2022/05/10 07:38:29;;;;;;;0.15;0.15;;;;;;;;;;4928116;29;20050;-90
2022/05/10 07:40:55;;;;;;;0.10;0.10;;;;;;;;;;4915810;29;20043;-92
2022/05/10 07:43:24;;;;;;;0.15;0.15;;;;;;;;;;4928504;29;20078;-89
2022/05/10 07:45:54;;;;;;;0.10;0.10;;;;;;;;;;4940249;29;20043;-88
2022/05/10 07:48:20;;;;;;;0.10;0.10;;;;;;;;;;4908058;29;20058;-90
2022/05/10 07:50:46;;;;;;;0.10;0.10;;;;;;;;;;4908659;29;20387;-90
2022/05/10 07:53:12;;;;;;;0.10;0.10;;;;;;;;;;4908301;29;20035;-89
2022/05/10 07:55:40;;;;;;;0.10;0.10;;;;;;;;;;4907781;29;20046;-89
2022/05/10 07:58:06;;;;;;;0.10;0.10;;;;;;;;;;4907881;29;20043;-88
2022/05/10 08:00:32;;;;;;;0.20;0.20;;;;;;;;;;4922874;29;20047;-89
2022/05/10 08:02:58;;;;;;;0.10;0.10;;;;;;;;;;4939230;29;20066;-89
2022/05/10 08:05:25;;;;;;;0.10;0.10;;;;;;;;;;4923333;29;20491;-89
2022/05/10 08:07:51;;;;;;;0.10;0.10;;;;;;;;;;4923337;29;20055;-88
2022/05/10 08:10:19;;;;;;;0.10;0.10;;;;;;;;;;4908085;29;20046;-89
2022/05/10 08:12:45;;;;;;;0.10;0.10;;;;;;;;;;4908893;29;20047;-91
2022/05/10 08:15:11;;;;;;;0.10;0.10;;;;;;;;;;4908110;29;20050;-92
2022/05/10 08:17:39;;;;;;;0.10;0.10;;;;;;;;;;4924402;29;20039;-92
2022/05/10 08:20:06;;;;;;;0.10;0.10;;;;;;;;;;4908766;29;20069;-92
2022/05/10 08:22:32;;;;;;;0.10;0.10;;;;;;;;;;4908635;29;20039;-92
2022/05/10 08:24:58;;;;;;;0.10;0.10;;;;;;;;;;4908018;29;20182;-92
2022/05/10 08:27:26;;;;;;;0.10;0.10;;;;;;;;;;4924180;29;20082;-92
2022/05/10 08:29:52;;;;;;;0.10;0.10;;;;;;;;;;4923820;29;20086;-92
2022/05/10 08:32:18;;;;;;;0.10;0.10;;;;;;;;;;4908475;29;20043;-92
2022/05/10 08:34:44;;;;;;;0.10;0.10;;;;;;;;;;4908596;29;20043;-92
2022/05/10 08:37:10;;;;;;;0.10;0.10;;;;;;;;;;4908568;29;20057;-89
2022/05/10 08:39:36;;;;;;;0.10;0.10;;;;;;;;;;4908403;29;20039;-92
2022/05/10 08:42:03;;;;;;;0.10;0.10;;;;;;;;;;4924224;29;20057;-92
2022/05/10 08:44:31;;;;;;;0.10;0.10;;;;;;;;;;4908261;29;20059;-91
2022/05/10 08:46:58;;;;;;;0.10;0.10;;;;;;;;;;4908052;29;20043;-91
2022/05/10 08:49:34;;;;;;;0.20;0.20;;;;;;;;;;4907987;29;20066;-92
2022/05/10 08:52:00;;;;;;;0.10;0.10;;;;;;;;;;4923560;29;20491;-91
2022/05/10 08:54:26;;;;;;;0.10;0.10;;;;;;;;;;4908287;29;20094;-91
2022/05/10 08:57:03;;;;;;;0.10;0.10;;;;;;;;;;4908245;29;20101;-91
2022/05/10 08:59:42;;;;;;;0.10;0.10;;;;;;;;;;4907750;29;20046;-91
2022/05/10 09:02:37;;;;;;;0.10;0.10;;;;;;;;;;4939255;29;20045;-90
2022/05/10 09:05:10;;;;;;;0.10;0.10;;;;;;;;;;4902729;29;20059;-91
2022/05/10 09:07:41;;;;;;;0.10;0.10;;;;;;;;;;4906990;29;20391;-91
2022/05/10 09:10:26;;;;;;;0.10;0.10;;;;;;;;;;4907913;29;20105;-91
2022/05/10 09:12:56;;;;;;;0.10;0.10;;;;;;;;;;4922360;29;20403;-92
2022/05/10 09:15:22;;;;;;;0.10;0.10;;;;;;;;;;4907679;29;20046;-92
2022/05/10 09:17:48;;;;;;;0.20;0.20;;;;;;;;;;4907493;29;20043;-91
2022/05/10 09:20:14;;;;;;;0.10;0.10;;;;;;;;;;4907607;29;20086;-91
2022/05/10 09:22:43;;;;;;;0.20;0.20;;;;;;;;;;4917421;28;20054;-91
2022/05/10 09:25:12;;;;;;;0.20;0.20;;;;;;;;;;4942446;28;20491;-91
2022/05/10 09:27:38;;;;;;;0.20;0.20;;;;;;;;;;4925929;28;20510;-90
2022/05/10 09:30:04;;;;;;;0.10;0.10;;;;;;;;;;4941724;28;20049;-92
2022/05/10 09:35:42;;;;;;;0.10;0.10;;;;;;;;;;4944395;28;20070;-90
2022/05/10 09:38:09;;;;;;;0.45;0.20;;;;;;;;;;4936891;28;20050;-90
2022/05/10 09:40:41;;;;;;;0.32;0.20;;;;;;;;;;4941848;28;20082;-90
2022/05/10 09:43:07;;;;;;;;;;;;;;;;;;4942229;28;20174;-90
2022/05/10 09:45:33;;;;;;;0.10;0.10;;;;;;;;;;4941669;28;19965;-90
2022/05/10 09:48:08;;;;;;;0.10;0.10;;;;;;;;;;4925718;28;20049;-91
2022/05/10 09:50:42;;;;;;;0.10;0.10;;;;;;;;;;4941374;28;20054;-93
2022/05/10 09:53:25;;;;;;;0.10;0.10;;;;;;;;;;4925948;28;20043;-94
2022/05/10 09:56:09;;;;;;;0.10;0.10;;;;;;;;;;4941823;28;20043;-93
2022/05/10 09:58:42;;;;;;;0.17;0.17;;;;;;;;;;4941473;28;20479;-92
2022/05/10 10:01:15;;;;;;;0.10;0.10;;;;;;;;;;4925332;28;20127;-92
2022/05/10 10:03:42;;;;;;;0.10;0.10;;;;;;;;;;4925943;28;20053;-92
2022/05/10 10:06:18;;;;;;;0.13;0.13;;;;;;;;;;4940983;28;20097;-90
2022/05/10 10:08:45;;;;;;;0.15;0.15;;;;;;;;;;4925348;28;20050;-89
2022/05/10 10:11:14;;;;;;;0.20;0.20;;;;;;;;;;4925511;28;20459;-90
2022/05/10 10:13:40;;;;;;;0.10;0.10;;;;;;;;;;4941234;28;20035;-90
2022/05/10 10:16:14;;;;;;;0.10;0.10;;;;;;;;;;4925012;28;20039;-89
2022/05/10 10:18:44;;;;;;;0.30;0.30;;;;;;;;;;4940826;28;20082;-89
2022/05/10 10:21:10;;;;;;;0.10;0.10;;;;;;;;;;4925173;28;20043;-90
2022/05/10 10:23:41;;;;;;;0.20;0.20;;;;;;;;;;4940976;28;20043;-90
2022/05/10 10:26:13;;;;;;;0.10;0.10;;;;;;;;;;4921140;29;20043;-90
2022/05/10 10:28:46;;;;;;;0.15;0.15;;;;;;;;;;4935718;28;20886;-94
2022/05/10 10:31:26;;;;;;;0.20;0.20;;;;;;;;;;4926429;28;20047;-93
2022/05/10 10:33:53;;;;;;;0.25;0.25;;;;;;;;;;4943017;28;20097;-92
2022/05/10 10:36:24;;;;;;;0.88;0.85;;;;;;;;;;4926814;28;20121;-91
2022/05/10 10:38:59;;;;;;;0.10;0.10;;;;;;;;;;4926363;28;20057;-92
2022/05/10 10:41:25;;;;;;;0.10;0.10;;;;;;;;;;4941811;28;20046;-90
2022/05/10 10:43:56;;;;;;;0.20;0.20;;;;;;;;;;4940852;28;20051;-89
2022/05/10 10:46:22;;;;;;;0.20;0.20;;;;;;;;;;4924478;28;20061;-88
2022/05/10 10:48:48;;;;;;;0.17;0.17;;;;;;;;;;4937837;29;20492;-88
2022/05/10 10:51:15;;;;;;;0.20;0.20;;;;;;;;;;4940768;29;20047;-89
2022/05/10 10:53:42;;;;;;;0.20;0.20;;;;;;;;;;4940664;29;20067;-89
2022/05/10 10:56:11;;;;;;;0.28;0.28;;;;;;;;;;4940709;29;20503;-90
2022/05/10 10:58:50;;;;;;;0.20;0.20;;;;;;;;;;4941083;29;20130;-90
2022/05/10 11:01:35;;;;;;;0.20;0.20;;;;;;;;;;4924932;29;20070;-90
2022/05/10 11:04:33;;;;;;;0.10;0.10;;;;;;;;;;4924865;29;20051;-90
2022/05/10 11:06:59;;;;;;;0.43;0.20;;;;;;;;;;4873122;29;20062;-89
2022/05/10 11:09:31;;;;;;;0.10;0.10;;;;;;;;;;4909200;29;20047;-89
2022/05/10 11:12:12;;;;;;;0.20;0.20;;;;;;;;;;4924744;29;20047;-90
2022/05/10 11:14:57;;;;;;;0.20;0.20;;;;;;;;;;4924820;29;20043;-91
2022/05/10 11:17:23;;;;;;;0.10;0.10;;;;;;;;;;4924055;29;20257;-91
2022/05/10 11:20:00;;;;;;;0.10;0.10;;;;;;;;;;4924662;29;20047;-91
2022/05/10 11:22:35;;;;;;;0.10;0.10;;;;;;;;;;4908623;29;20047;-91
2022/05/10 11:25:16;;;;;;;0.13;0.13;;;;;;;;;;4924464;29;20054;-91
2022/05/10 11:28:01;;;;;;;0.20;0.20;;;;;;;;;;4939742;29;20515;-91
2022/05/10 11:30:27;;;;;;;0.20;0.20;;;;;;;;;;4924613;29;20502;-90
2022/05/10 11:33:09;;;;;;;0.13;0.13;;;;;;;;;;4923493;29;20046;-90
2022/05/10 11:35:53;;;;;;;0.10;0.10;;;;;;;;;;4923976;29;20055;-91
2022/05/10 11:38:25;;;;;;;0.20;0.20;;;;;;;;;;4939669;29;20121;-89
2022/05/10 11:40:51;;;;;;;0.20;0.20;;;;;;;;;;4923996;29;20054;-88
2022/05/10 11:43:26;;;;;;;0.13;0.13;;;;;;;;;;4923528;29;20036;-91
2022/05/10 11:46:02;;;;;;;0.20;0.20;;;;;;;;;;4908117;29;20167;-90
2022/05/10 11:48:42;;;;;;;0.20;0.20;;;;;;;;;;4907459;29;20047;-90
2022/05/10 11:53:59;;;;;;;0.17;0.17;;;;;;;;;;4958064;28;20499;-90
2022/05/10 11:56:26;;;;;;;0.20;0.20;;;;;;;;;;4959038;28;20463;-90
2022/05/10 11:58:52;;;;;;;0.10;0.10;;;;;;;;;;4926210;28;20045;-91
2022/05/10 12:01:37;;;;;;;0.10;0.10;;;;;;;;;;4926308;28;20126;-91
2022/05/10 12:04:03;;;;;;;0.10;0.10;;;;;;;;;;4942072;28;20043;-90
2022/05/10 12:06:31;;;;;;;0.10;0.10;;;;;;;;;;4926284;28;20117;-94
2022/05/10 12:08:58;;;;;;;0.20;0.20;;;;;;;;;;4942593;28;20078;-90
2022/05/10 12:11:39;;;;;;;0.43;0.43;;;;;;;;;;4942383;28;20038;-90
2022/05/10 12:22:45;;;;;;;0.20;0.20;;;;;;;;;;4959043;28;20407;-90
2022/05/10 12:25:32;;;;;;;0.10;0.10;;;;;;;;;;4942098;28;20074;-92
2022/05/10 12:28:00;;;;;;;0.20;0.20;;;;;;;;;;4926358;28;20046;-91
2022/05/10 12:30:30;;;;;;;0.13;0.13;;;;;;;;;;4926876;28;20046;-89
2022/05/10 12:32:57;;;;;;;0.80;0.68;;;;;;;;;;4926490;28;20026;-90
2022/05/10 12:35:34;;;;;;;0.20;0.20;;;;;;;;;;4926610;28;20041;-91
2022/05/10 12:38:00;;;;;;;0.20;0.20;;;;;;;;;;4942130;28;20138;-92
2022/05/10 12:40:33;;;;;;;0.20;0.20;;;;;;;;;;4926381;28;20129;-87
2022/05/10 12:43:15;;;;;;;0.35;0.35;;;;;;;;;;4941974;28;20044;-91
2022/05/10 12:45:45;;;;;;;0.20;0.20;;;;;;;;;;4926809;28;20426;-91
2022/05/10 12:48:30;;;;;;;0.30;0.30;;;;;;;;;;4941677;28;20162;-90
2022/05/10 12:51:15;;;;;;;0.10;0.10;;;;;;;;;;4942293;28;20542;-90
2022/05/10 12:53:48;;;;;;;0.10;0.10;;;;;;;;;;4942063;28;20037;-90
2022/05/10 12:56:17;;;;;;;0.10;0.10;;;;;;;;;;4926711;28;20078;-91
2022/05/10 12:58:48;;;;;;;0.10;0.10;;;;;;;;;;4942173;28;20089;-92
2022/05/10 13:01:15;;;;;;;0.30;0.30;;;;;;;;;;4926202;28;20121;-92
2022/05/10 13:03:46;;;;;;;0.10;0.10;;;;;;;;;;4925811;28;20046;-94
2022/05/10 13:06:15;;;;;;;0.20;0.20;;;;;;;;;;4926260;28;20047;-93
2022/05/10 13:08:45;;;;;;;0.10;0.10;;;;;;;;;;4942188;28;20166;-92
2022/05/10 13:11:11;;;;;;;0.20;0.20;;;;;;;;;;4925883;28;20542;-91
2022/05/10 13:13:38;;;;;;;0.40;0.40;;;;;;;;;;4926084;28;20081;-91
2022/05/10 13:16:04;;;;;;;0.20;0.20;;;;;;;;;;4926816;28;20478;-91
2022/05/10 13:18:30;;;;;;;0.10;0.10;;;;;;;;;;4926539;28;20043;-92
2022/05/10 13:20:57;;;;;;;0.10;0.10;;;;;;;;;;4926600;28;20078;-93
2022/05/10 13:23:31;;;;;;;0.20;0.20;;;;;;;;;;4926328;28;20592;-92
2022/05/10 13:26:04;;;;;;;0.10;0.10;;;;;;;;;;4926428;28;20042;-93
2022/05/10 13:28:30;;;;;;;0.10;0.10;;;;;;;;;;4926535;28;20034;-93
2022/05/10 13:30:57;;;;;;;0.10;0.10;;;;;;;;;;4926109;28;20050;-92
2022/05/10 13:33:23;;;;;;;0.10;0.10;;;;;;;;;;4926146;28;20039;-92
2022/05/10 13:35:55;;;;;;;0.10;0.10;;;;;;;;;;4941807;28;20039;-92
2022/05/10 13:38:26;;;;;;;0.10;0.10;;;;;;;;;;4926160;28;20046;-92
2022/05/10 13:40:54;;;;;;;0.10;0.10;;;;;;;;;;4942295;28;20146;-92
2022/05/10 13:43:21;;;;;;;0.10;0.10;;;;;;;;;;4926265;28;20067;-91
2022/05/10 13:45:51;;;;;;;0.20;0.20;;;;;;;;;;4926206;28;20065;-94
2022/05/10 13:48:17;;;;;;;0.10;0.10;;;;;;;;;;4925471;28;20051;-92
2022/05/10 13:50:45;;;;;;;0.10;0.10;;;;;;;;;;4925627;28;20047;-93
2022/05/10 13:53:15;;;;;;;0.20;0.20;;;;;;;;;;4925963;28;20070;-93
2022/05/10 13:55:47;;;;;;;0.20;0.20;;;;;;;;;;4925635;28;20042;-93
2022/05/10 13:58:16;;;;;;;0.20;0.20;;;;;;;;;;4926004;28;20533;-93
2022/05/10 14:00:42;;;;;;;0.20;0.20;;;;;;;;;;4925195;28;20082;-93
2022/05/10 14:03:15;;;;;;;0.10;0.10;;;;;;;;;;4925067;28;20049;-93
2022/05/10 14:05:41;;;;;;;0.20;0.20;;;;;;;;;;4925969;28;20054;-93
2022/05/10 14:08:12;;;;;;;0.10;0.10;;;;;;;;;;4926294;28;20043;-90
2022/05/10 14:10:39;;;;;;;0.20;0.20;;;;;;;;;;4940305;28;20081;-89
2022/05/10 14:13:08;;;;;;;0.20;0.20;;;;;;;;;;4926333;28;20046;-92
2022/05/10 14:15:39;;;;;;;0.10;0.10;;;;;;;;;;4926327;28;20039;-93
2022/05/10 14:18:09;;;;;;;0.10;0.10;;;;;;;;;;4925873;28;20057;-93
2022/05/10 14:20:40;;;;;;;0.38;0.38;;;;;;;;;;4941567;28;20505;-95
2022/05/10 14:23:11;;;;;;;0.20;0.20;;;;;;;;;;4928569;28;20045;-93
2022/05/10 14:25:41;;;;;;;0.20;0.20;;;;;;;;;;4930461;28;20043;-94
2022/05/10 14:28:24;;;;;;;0.10;0.10;;;;;;;;;;4928848;28;20137;-94
2022/05/10 14:31:12;;;;;;;0.10;0.10;;;;;;;;;;4949582;28;20039;-94
2022/05/10 14:33:42;;;;;;;0.10;0.10;;;;;;;;;;4948043;28;20041;-92
2022/05/10 14:36:10;;;;;;;0.15;0.15;;;;;;;;;;4928945;28;20049;-92
2022/05/10 14:38:39;;;;;;;0.20;0.20;;;;;;;;;;4928489;28;20122;-93
2022/05/10 14:41:06;;;;;;;0.10;0.10;;;;;;;;;;4935206;28;20047;-95
2022/05/10 14:43:50;;;;;;;0.15;0.15;;;;;;;;;;4913566;29;20043;-93
2022/05/10 14:46:27;;;;;;;0.10;0.10;;;;;;;;;;4927220;29;20089;-91
2022/05/10 14:49:01;;;;;;;0.10;0.10;;;;;;;;;;4906352;29;20103;-92
2022/05/10 14:51:39;;;;;;;0.20;0.20;;;;;;;;;;4907422;29;20051;-93
2022/05/10 14:54:06;;;;;;;0.10;0.10;;;;;;;;;;4923464;29;20094;-92
2022/05/10 14:56:38;;;;;;;0.10;0.10;;;;;;;;;;4907284;29;20040;-94
2022/05/10 14:59:10;;;;;;;0.10;0.10;;;;;;;;;;4907178;29;20189;-91
2022/05/10 15:01:37;;;;;;;0.10;0.10;;;;;;;;;;4923022;29;20075;-94
2022/05/10 15:04:05;;;;;;;0.10;0.10;;;;;;;;;;4907951;29;20318;-92
2022/05/10 15:06:31;;;;;;;0.10;0.10;;;;;;;;;;4906550;29;20098;-92
2022/05/10 15:08:57;;;;;;;0.10;0.10;;;;;;;;;;4906841;29;20036;-93
2022/05/10 15:11:23;;;;;;;0.10;0.10;;;;;;;;;;4906456;29;20039;-93
2022/05/10 15:13:50;;;;;;;0.10;0.10;;;;;;;;;;4906570;29;20046;-93
2022/05/10 15:16:16;;;;;;;0.10;0.10;;;;;;;;;;4906638;29;20047;-93
2022/05/10 15:18:58;;;;;;;0.10;0.10;;;;;;;;;;4906540;29;20089;-92
2022/05/10 15:21:31;;;;;;;0.10;0.10;;;;;;;;;;4921965;29;20050;-92
2022/05/10 15:23:58;;;;;;;0.10;0.10;;;;;;;;;;4905971;29;20051;-93
2022/05/10 15:26:44;;;;;;;0.10;0.10;;;;;;;;;;4906252;29;20163;-92
2022/05/10 15:29:12;;;;;;;0.10;0.10;;;;;;;;;;4921141;29;20043;-93
2022/05/10 15:31:38;;;;;;;0.10;0.10;;;;;;;;;;4906484;29;20040;-92
2022/05/10 15:34:42;;;;;;;0.10;0.10;;;;;;;;;;4905079;29;20050;-92
2022/05/10 15:36:52;;;;;;;0.20;0.20;;;;;;;;;;4924223;29;20051;-92
2022/05/10 15:39:18;;;;;;;0.10;0.10;;;;;;;;;;4905278;29;20483;-92
2022/05/10 15:41:45;;;;;;;0.20;0.20;;;;;;;;;;4906973;29;20091;-94
2022/05/10 15:44:11;;;;;;;0.30;0.30;;;;;;;;;;4905722;29;20139;-93
2022/05/10 15:46:37;;;;;;;0.10;0.10;;;;;;;;;;4906134;29;20411;-93
2022/05/10 15:49:03;;;;;;;0.20;0.20;;;;;;;;;;4907453;29;20055;-92
2022/05/10 15:51:29;;;;;;;0.10;0.10;;;;;;;;;;4905713;29;20055;-91
2022/05/10 15:53:57;;;;;;;0.28;0.20;;;;;;;;;;4923441;29;20103;-89
2022/05/10 15:56:24;;;;;;;0.10;0.10;;;;;;;;;;4906040;29;20043;-92
2022/05/10 15:58:50;;;;;;;0.10;0.10;;;;;;;;;;4921842;29;20476;-91
2022/05/10 16:01:16;;;;;;;0.10;0.10;;;;;;;;;;4921168;29;20083;-93
2022/05/10 16:03:44;;;;;;;0.10;0.10;;;;;;;;;;4904520;29;20087;-90
2022/05/10 16:06:10;;;;;;;0.35;0.20;;;;;;;;;;4904790;29;20040;-90
2022/05/10 16:08:36;;;;;;;0.10;0.10;;;;;;;;;;4920327;29;20040;-91
2022/05/10 16:11:03;;;;;;;0.10;0.10;;;;;;;;;;4904775;29;20456;-91
2022/05/10 16:13:29;;;;;;;0.10;0.10;;;;;;;;;;4920638;29;20402;-91
2022/05/10 16:15:55;;;;;;;0.10;0.10;;;;;;;;;;4905293;29;20488;-91
2022/05/10 16:18:21;;;;;;;0.10;0.10;;;;;;;;;;4905063;29;20055;-91
2022/05/10 16:20:56;;;;;;;0.10;0.10;;;;;;;;;;4904634;29;20048;-91
2022/05/10 16:23:22;;;;;;;0.10;0.10;;;;;;;;;;4920263;29;20051;-91
2022/05/10 16:25:48;;;;;;;0.10;0.10;;;;;;;;;;4904717;29;20522;-91
2022/05/10 16:30:58;;;;;;;0.10;0.10;;;;;;;;;;4922358;29;20043;-91
2022/05/10 16:33:28;;;;;;;0.20;0.20;;;;;;;;;;4904462;29;20053;-93
2022/05/10 16:35:54;;;;;;;0.10;0.10;;;;;;;;;;4905013;29;20052;-91
2022/05/10 16:38:20;;;;;;;0.10;0.10;;;;;;;;;;4920128;29;20047;-92
2022/05/10 16:40:47;;;;;;;0.10;0.10;;;;;;;;;;4904404;29;20039;-90
2022/05/10 16:43:14;;;;;;;0.20;0.20;;;;;;;;;;4919469;29;20130;-89
2022/05/10 16:45:39;;;;;;;0.10;0.10;;;;;;;;;;4919200;29;20126;-89
2022/05/10 16:48:06;;;;;;;0.10;0.10;;;;;;;;;;4921220;28;20481;-89
2022/05/10 16:50:32;;;;;;;0.10;0.10;;;;;;;;;;4922616;29;20039;-90
2022/05/10 16:52:58;;;;;;;0.10;0.10;;;;;;;;;;4922959;29;20419;-90
2022/05/10 16:55:24;;;;;;;0.10;0.10;;;;;;;;;;4922586;29;20102;-89
2022/05/10 16:57:51;;;;;;;0.10;0.10;;;;;;;;;;4906573;29;20051;-90
2022/05/10 17:00:17;;;;;;;0.73;0.63;;;;;;;;;;4906317;29;20043;-89
2022/05/10 17:02:44;;;;;;;0.10;0.10;;;;;;;;;;4906868;29;20365;-88
2022/05/10 17:05:11;;;;;;;0.10;0.10;;;;;;;;;;4907383;29;20050;-91
2022/05/10 17:07:38;;;;;;;0.10;0.10;;;;;;;;;;4907020;29;20051;-91
2022/05/10 17:10:04;;;;;;;0.10;0.10;;;;;;;;;;4922229;29;20113;-91
2022/05/10 17:12:30;;;;;;;0.10;0.10;;;;;;;;;;4922143;29;20043;-90
2022/05/10 17:14:56;;;;;;;0.10;0.10;;;;;;;;;;4906547;29;20094;-90
2022/05/10 17:17:22;;;;;;;0.10;0.10;;;;;;;;;;4907017;29;20082;-89
2022/05/10 17:19:48;;;;;;;0.10;0.10;;;;;;;;;;4922140;29;20050;-90
2022/05/10 17:22:14;;;;;;;0.10;0.10;;;;;;;;;;4921992;29;20054;-90
2022/05/10 17:24:41;;;;;;;0.10;0.10;;;;;;;;;;4922152;29;20681;-90
2022/05/10 17:27:09;;;;;;;0.10;0.10;;;;;;;;;;4906620;29;20498;-91
2022/05/10 17:29:35;;;;;;;0.10;0.10;;;;;;;;;;4907057;29;20043;-91
2022/05/10 17:32:02;;;;;;;0.10;0.10;;;;;;;;;;4922143;29;20055;-91
2022/05/10 17:34:28;;;;;;;0.10;0.10;;;;;;;;;;4907082;29;20151;-90
2022/05/10 17:36:54;;;;;;;0.10;0.10;;;;;;;;;;4906876;29;20043;-91
2022/05/10 17:39:20;;;;;;;0.10;0.10;;;;;;;;;;4922509;29;20085;-91
2022/05/10 17:41:46;;;;;;;0.10;0.10;;;;;;;;;;4906413;29;20050;-90
2022/05/10 17:44:12;;;;;;;0.10;0.10;;;;;;;;;;4906947;29;20047;-90
2022/05/10 17:46:38;;;;;;;0.15;0.15;;;;;;;;;;4906330;29;20047;-90
2022/05/10 17:49:05;;;;;;;0.10;0.10;;;;;;;;;;4906588;29;20055;-91
2022/05/10 17:51:38;;;;;;;0.10;0.10;;;;;;;;;;4906228;29;20047;-91
2022/05/10 17:54:04;;;;;;;0.10;0.10;;;;;;;;;;4906953;29;20047;-91
2022/05/10 17:56:30;;;;;;;0.20;0.20;;;;;;;;;;4921829;29;20039;-89
2022/05/10 17:58:57;;;;;;;0.10;0.10;;;;;;;;;;4908210;29;20098;-90
2022/05/10 18:01:27;;;;;;;0.20;0.20;;;;;;;;;;4925700;29;20050;-90
2022/05/10 18:03:53;;;;;;;0.10;0.10;;;;;;;;;;4909964;29;20542;-89
2022/05/10 18:06:19;;;;;;;0.10;0.10;;;;;;;;;;4909930;29;20043;-89
2022/05/10 18:08:45;;;;;;;0.10;0.10;;;;;;;;;;4909797;29;20051;-89
2022/05/10 18:11:12;;;;;;;0.10;0.10;;;;;;;;;;4925482;29;20050;-89
2022/05/10 18:13:38;;;;;;;0.10;0.10;;;;;;;;;;4925038;29;20099;-88
2022/05/10 18:16:05;;;;;;;0.10;0.10;;;;;;;;;;4940904;29;20091;-90
2022/05/10 18:18:31;;;;;;;0.10;0.10;;;;;;;;;;4925821;29;20079;-90
2022/05/10 18:20:57;;;;;;;0.10;0.10;;;;;;;;;;4926125;29;20126;-91
2022/05/10 18:23:23;;;;;;;0.10;0.10;;;;;;;;;;4910103;29;20047;-89
2022/05/10 18:25:49;;;;;;;0.10;0.10;;;;;;;;;;4924672;28;20047;-90
2022/05/10 18:28:15;;;;;;;0.10;0.10;;;;;;;;;;4943280;28;20544;-89
2022/05/10 18:30:41;;;;;;;0.10;0.10;;;;;;;;;;4928182;28;20038;-89
2022/05/10 18:33:07;;;;;;;0.10;0.10;;;;;;;;;;4928036;28;20050;-89